Time;durP1;ratioP1;P1;durP2;ratioP2;P2;SDS_P1;SDS_P2;PMS_P1;PMS_P2;Temp;Humidity;BMP_temperature;BMP_pressure;BME280_temperature;BME280_humidity;BME280_pressure;Samples;Min_cycle;Max_cycle;Signal;HPM_P1;HPM_P2
2022/08/17 00:00:29;;;;;;;3.72;3.30;;;22.40;82.40;;;;;;5111922;28;20460;-78
2022/08/17 00:03:17;;;;;;;5.25;3.42;;;22.40;82.60;;;;;;5112700;28;20224;-78
2022/08/17 00:05:46;;;;;;;4.00;3.05;;;22.40;83.10;;;;;;5113824;28;20024;-79
2022/08/17 00:08:15;;;;;;;4.28;3.63;;;22.40;82.50;;;;;;5112420;28;20081;-78
2022/08/17 00:10:43;;;;;;;4.57;2.90;;;22.40;82.70;;;;;;5112426;28;20024;-79
2022/08/17 00:13:34;;;;;;;6.07;3.40;;;22.30;82.90;;;;;;5112596;28;20032;-79
2022/08/17 00:16:04;;;;;;;5.60;3.17;;;22.30;83.10;;;;;;5112550;28;20119;-79
2022/08/17 00:18:31;;;;;;;5.20;3.20;;;22.30;83.30;;;;;;5111925;28;20035;-79
2022/08/17 00:20:58;;;;;;;4.22;3.30;;;22.30;83.30;;;;;;5113614;28;20024;-79
2022/08/17 00:23:25;;;;;;;6.13;3.17;;;22.30;83.60;;;;;;5111616;28;20084;-79
2022/08/17 00:25:51;;;;;;;3.33;2.92;;;22.20;83.80;;;;;;5112365;28;20098;-79
2022/08/17 00:28:18;;;;;;;4.90;3.10;;;22.10;84.10;;;;;;5111808;28;20034;-78
2022/08/17 00:30:45;;;;;;;4.93;3.47;;;22.00;84.50;;;;;;5112506;28;20020;-78
2022/08/17 00:33:15;;;;;;;5.53;3.22;;;22.00;84.90;;;;;;5113656;28;20027;-79
2022/08/17 00:35:42;;;;;;;8.40;3.60;;;21.90;84.90;;;;;;5112214;28;20054;-79
2022/08/17 00:38:08;;;;;;;4.55;3.33;;;21.80;85.20;;;;;;5112377;28;20028;-79
2022/08/17 00:40:40;;;;;;;6.53;3.53;;;21.80;85.30;;;;;;5112677;28;20039;-79
2022/08/17 00:43:17;;;;;;;4.68;3.30;;;21.90;85.60;;;;;;5113108;28;20052;-79
2022/08/17 00:45:44;;;;;;;4.20;3.30;;;21.80;85.60;;;;;;5112996;28;20032;-79
2022/08/17 00:48:10;;;;;;;5.20;3.65;;;21.80;86.00;;;;;;5113248;28;20031;-79
2022/08/17 00:50:37;;;;;;;5.05;2.95;;;21.80;86.70;;;;;;5111927;28;20198;-78
2022/08/17 00:53:04;;;;;;;7.65;3.25;;;21.80;86.10;;;;;;5112611;28;20035;-79
2022/08/17 00:55:31;;;;;;;5.03;3.60;;;21.90;86.30;;;;;;5112009;28;20122;-79
2022/08/17 00:58:00;;;;;;;4.10;3.50;;;21.90;86.30;;;;;;5112642;28;20438;-80
2022/08/17 01:00:31;;;;;;;6.40;3.28;;;21.90;86.40;;;;;;5111879;28;20460;-79
2022/08/17 01:03:01;;;;;;;5.28;3.40;;;21.90;86.50;;;;;;5113644;28;20059;-79
2022/08/17 01:05:30;;;;;;;7.05;3.30;;;21.90;86.50;;;;;;5111555;28;20063;-78
2022/08/17 01:07:58;;;;;;;5.22;3.38;;;21.90;86.80;;;;;;5117311;28;20037;-79
2022/08/17 01:10:45;;;;;;;4.75;3.30;;;21.90;87.10;;;;;;5116787;28;20525;-78
2022/08/17 01:13:12;;;;;;;3.80;3.45;;;21.90;87.70;;;;;;5117691;28;20049;-78
2022/08/17 01:15:45;;;;;;;8.88;3.63;;;21.90;88.20;;;;;;5115432;28;20023;-77
2022/08/17 01:18:12;;;;;;;7.05;3.50;;;21.90;89.40;;;;;;5116470;28;20038;-79
2022/08/17 01:20:43;;;;;;;5.22;4.07;;;21.90;90.10;;;;;;5116493;28;20043;-79
2022/08/17 01:23:09;;;;;;;4.18;3.75;;;21.90;90.20;;;;;;5116355;28;20023;-78
2022/08/17 01:25:35;;;;;;;5.85;3.65;;;21.90;90.20;;;;;;5115128;28;20469;-79
2022/08/17 01:28:01;;;;;;;5.80;3.92;;;21.90;90.30;;;;;;5116009;28;20035;-78
2022/08/17 01:30:27;;;;;;;5.95;4.22;;;21.80;90.60;;;;;;5115212;28;20023;-78
2022/08/17 01:32:52;;;;;;;4.03;3.58;;;21.80;90.90;;;;;;5115983;28;20088;-79
2022/08/17 01:35:18;;;;;;;5.18;3.88;;;21.80;91.40;;;;;;5116139;28;20477;-77
2022/08/17 01:37:44;;;;;;;4.65;3.50;;;21.80;91.60;;;;;;5117704;28;20051;-81
2022/08/17 01:40:22;;;;;;;6.93;3.97;;;21.70;91.90;;;;;;5117377;28;20385;-80
2022/08/17 01:42:54;;;;;;;6.45;3.88;;;21.80;92.30;;;;;;5116156;28;20134;-81
2022/08/17 01:45:25;;;;;;;5.45;3.72;;;21.70;92.70;;;;;;5116017;28;20027;-80
2022/08/17 01:47:51;;;;;;;7.63;3.72;;;21.70;93.00;;;;;;5115233;28;20507;-78
2022/08/17 01:50:21;;;;;;;5.38;3.70;;;21.70;93.50;;;;;;5117322;28;20028;-79
2022/08/17 01:52:51;;;;;;;4.38;3.55;;;21.70;93.80;;;;;;5116396;28;20032;-80
2022/08/17 01:55:20;;;;;;;7.60;4.00;;;21.70;94.00;;;;;;5117358;28;20102;-79
2022/08/17 01:57:46;;;;;;;4.75;3.55;;;21.60;94.20;;;;;;5116455;28;20024;-79
2022/08/17 02:00:12;;;;;;;6.93;4.13;;;21.70;94.30;;;;;;5115964;28;20457;-79
2022/08/17 02:02:39;;;;;;;6.75;3.65;;;21.70;94.40;;;;;;5114487;28;20088;-79
2022/08/17 02:05:06;;;;;;;5.47;3.60;;;21.70;94.30;;;;;;5115788;28;20031;-80
2022/08/17 02:07:31;;;;;;;5.32;3.67;;;21.60;94.30;;;;;;5115392;28;20027;-80
2022/08/17 02:09:57;;;;;;;4.95;4.13;;;21.60;94.40;;;;;;5115560;28;20024;-80
2022/08/17 02:12:23;;;;;;;8.50;4.38;;;21.50;94.30;;;;;;5115250;28;20077;-80
2022/08/17 02:14:49;;;;;;;5.63;4.03;;;21.50;94.20;;;;;;5116267;28;20081;-79
2022/08/17 02:17:15;;;;;;;5.57;4.28;;;21.40;93.90;;;;;;5115139;28;20035;-79
2022/08/17 02:19:41;;;;;;;6.30;3.70;;;21.40;93.80;;;;;;5114306;28;20348;-78
2022/08/17 02:22:07;;;;;;;4.10;3.70;;;21.40;93.70;;;;;;5114982;28;20512;-79
2022/08/17 02:24:36;;;;;;;7.40;3.95;;;21.40;93.60;;;;;;5116110;28;20103;-79
2022/08/17 02:27:03;;;;;;;5.38;3.75;;;21.40;93.50;;;;;;5116263;28;20032;-79
2022/08/17 02:29:28;;;;;;;8.02;3.83;;;21.30;93.50;;;;;;5114577;28;20034;-79
2022/08/17 02:31:57;;;;;;;6.97;4.13;;;21.30;93.50;;;;;;5116553;28;20032;-80
2022/08/17 02:34:23;;;;;;;5.60;3.78;;;21.30;93.60;;;;;;5115263;28;20073;-78
2022/08/17 02:36:51;;;;;;;4.53;3.58;;;21.20;93.60;;;;;;5115056;28;20469;-79
2022/08/17 02:39:17;;;;;;;6.25;4.03;;;21.20;93.60;;;;;;5115510;28;20030;-80
2022/08/17 02:41:43;;;;;;;5.43;3.78;;;21.20;93.60;;;;;;5114341;28;20036;-79
2022/08/17 02:44:10;;;;;;;6.43;3.70;;;21.10;93.40;;;;;;5116172;28;20130;-79
2022/08/17 02:46:36;;;;;;;4.78;3.97;;;21.10;93.30;;;;;;5115318;28;20097;-79
2022/08/17 02:49:03;;;;;;;3.80;3.40;;;21.00;93.50;;;;;;5115383;28;20035;-79
2022/08/17 02:51:28;;;;;;;4.45;3.65;;;21.00;93.60;;;;;;5114075;28;20023;-80
2022/08/17 02:53:54;;;;;;;4.18;3.70;;;20.90;93.60;;;;;;5114841;28;20111;-79
2022/08/17 02:56:20;;;;;;;3.92;3.53;;;20.90;93.50;;;;;;5114567;28;20464;-79
2022/08/17 02:58:45;;;;;;;5.10;3.63;;;20.90;93.50;;;;;;5113670;28;20024;-79
2022/08/17 03:01:11;;;;;;;5.53;3.72;;;20.80;93.60;;;;;;5114466;28;20031;-79
2022/08/17 03:03:38;;;;;;;4.18;3.72;;;20.80;93.60;;;;;;5113795;28;20024;-80
2022/08/17 03:06:06;;;;;;;4.82;3.70;;;20.80;93.60;;;;;;5114401;28;20024;-79
2022/08/17 03:08:31;;;;;;;5.43;3.60;;;20.70;93.70;;;;;;5114082;28;20028;-79
2022/08/17 03:10:57;;;;;;;4.82;4.00;;;20.70;93.70;;;;;;5115061;28;20527;-79
2022/08/17 03:13:23;;;;;;;6.68;4.40;;;20.60;93.80;;;;;;5115741;28;20078;-77
2022/08/17 03:15:49;;;;;;;4.25;3.78;;;20.50;94.10;;;;;;5114978;28;20031;-79
2022/08/17 03:18:18;;;;;;;4.88;4.00;;;20.40;94.40;;;;;;5114627;28;20031;-79
2022/08/17 03:20:43;;;;;;;5.88;4.00;;;20.40;94.50;;;;;;5113126;28;20023;-79
2022/08/17 03:23:09;;;;;;;7.78;4.40;;;20.40;94.50;;;;;;5113773;28;20034;-79
2022/08/17 03:25:39;;;;;;;5.03;4.03;;;20.50;94.50;;;;;;5114528;28;20114;-79
2022/08/17 03:28:06;;;;;;;4.50;3.53;;;20.50;94.60;;;;;;5113839;28;20490;-79
2022/08/17 03:30:32;;;;;;;7.63;4.78;;;20.50;94.60;;;;;;5114420;28;20099;-78
2022/08/17 03:33:01;;;;;;;7.22;4.40;;;20.40;94.70;;;;;;5113960;28;20530;-79
2022/08/17 03:35:29;;;;;;;6.10;3.85;;;20.50;94.70;;;;;;5113520;28;20054;-79
2022/08/17 03:37:56;;;;;;;4.47;3.95;;;20.50;94.70;;;;;;5113548;28;20027;-80
2022/08/17 03:40:22;;;;;;;6.28;4.07;;;20.50;94.80;;;;;;5113905;28;20053;-80
2022/08/17 03:42:51;;;;;;;4.95;3.90;;;20.50;95.30;;;;;;5114224;28;20036;-80
2022/08/17 03:56:40;;;;;;;7.10;4.50;;;20.50;95.80;;;;;;5113664;28;20060;-80
2022/08/17 03:56:42;;;;;;;6.95;4.88;;;20.60;97.90;;;;;;5114347;28;20491;-79
2022/08/17 03:59:12;;;;;;;;;;;20.60;97.90;;;;;;5114377;28;20030;-78
2022/08/17 04:01:38;;;;;;;6.57;4.47;;;20.60;98.40;;;;;;5113584;28;19956;-78
2022/08/17 04:04:04;;;;;;;9.25;5.05;;;20.60;98.20;;;;;;5113190;28;20020;-78
2022/08/17 04:06:30;;;;;;;6.05;4.95;;;20.60;98.10;;;;;;5113219;28;20084;-78
2022/08/17 04:08:56;;;;;;;7.70;5.30;;;20.60;98.20;;;;;;5114254;28;20032;-80
2022/08/17 04:11:21;;;;;;;5.50;4.78;;;20.60;98.20;;;;;;5113427;28;20046;-79
2022/08/17 04:13:47;;;;;;;6.38;5.10;;;20.60;98.30;;;;;;5112626;28;20024;-79
2022/08/17 04:16:12;;;;;;;6.60;5.38;;;20.60;98.30;;;;;;5113002;28;20430;-78
2022/08/17 04:18:38;;;;;;;8.43;5.07;;;20.60;98.20;;;;;;5112508;28;20059;-79
2022/08/17 04:21:03;;;;;;;7.07;5.10;;;20.70;98.20;;;;;;5114400;28;20445;-81
2022/08/17 04:23:32;;;;;;;6.55;4.95;;;20.70;98.10;;;;;;5114325;28;20107;-80
2022/08/17 04:25:58;;;;;;;7.95;5.13;;;20.70;98.10;;;;;;5113372;28;20051;-81
2022/08/17 04:28:23;;;;;;;6.07;5.30;;;20.70;98.20;;;;;;5114120;28;20453;-79
2022/08/17 04:30:49;;;;;;;5.20;4.70;;;20.70;98.20;;;;;;5111924;28;20660;-78
2022/08/17 04:33:22;;;;;;;8.45;5.43;;;20.70;98.40;;;;;;5112655;28;20034;-78
2022/08/17 04:35:54;;;;;;;8.77;5.68;;;20.70;98.30;;;;;;5112178;28;20032;-78
2022/08/17 04:38:23;;;;;;;7.65;5.43;;;20.70;98.30;;;;;;5113406;28;20035;-79
2022/08/17 04:43:36;;;;;;;5.93;5.18;;;20.80;98.20;;;;;;5117726;28;20112;-78
2022/08/17 04:46:04;;;;;;;6.00;5.25;;;20.80;98.50;;;;;;5117212;28;20095;-79
2022/08/17 04:48:33;;;;;;;7.70;5.35;;;20.80;98.30;;;;;;5118313;28;20422;-78
2022/08/17 04:51:01;;;;;;;7.78;5.38;;;20.80;98.30;;;;;;5117231;28;20024;-80
2022/08/17 04:53:27;;;;;;;10.13;5.18;;;20.90;98.20;;;;;;5117476;28;20073;-79
2022/08/17 04:55:54;;;;;;;7.53;5.15;;;20.90;98.10;;;;;;5117785;28;20033;-80
2022/08/17 04:58:20;;;;;;;7.47;5.30;;;20.90;98.10;;;;;;5116855;28;20024;-79
2022/08/17 05:00:46;;;;;;;8.48;5.50;;;20.90;98.10;;;;;;5117482;28;20051;-78
2022/08/17 05:03:12;;;;;;;7.93;5.43;;;20.90;98.10;;;;;;5117751;28;20051;-79
2022/08/17 05:05:48;;;;;;;9.40;5.68;;;21.00;98.10;;;;;;5115872;28;20032;-78
2022/08/17 05:08:15;;;;;;;6.28;4.93;;;21.00;98.00;;;;;;5117683;28;20110;-78
2022/08/17 05:10:41;;;;;;;11.02;5.43;;;21.00;98.00;;;;;;5117011;28;20028;-78
2022/08/17 05:13:10;;;;;;;6.38;5.18;;;21.10;97.90;;;;;;5116397;28;20023;-78
2022/08/17 05:15:38;;;;;;;10.93;5.10;;;21.10;97.80;;;;;;5115971;28;20035;-78
2022/08/17 05:18:05;;;;;;;7.10;5.30;;;21.20;97.70;;;;;;5117422;28;20051;-79
2022/08/17 05:20:32;;;;;;;7.85;5.20;;;21.20;97.60;;;;;;5117263;28;20465;-78
2022/08/17 05:23:03;;;;;;;7.82;5.22;;;21.30;97.60;;;;;;5116853;28;20481;-79
2022/08/17 05:25:32;;;;;;;5.63;5.03;;;21.30;97.40;;;;;;5116201;28;20031;-79
2022/08/17 05:27:58;;;;;;;9.85;5.53;;;21.40;97.40;;;;;;5115768;28;20059;-78
2022/08/17 05:30:25;;;;;;;5.88;5.28;;;21.40;97.30;;;;;;5115918;28;20051;-78
2022/08/17 05:32:58;;;;;;;8.15;5.35;;;21.50;97.20;;;;;;5115466;28;20069;-79
2022/08/17 05:35:26;;;;;;;9.52;5.18;;;21.50;97.20;;;;;;5117372;28;20028;-79
2022/08/17 05:37:52;;;;;;;9.07;5.20;;;21.50;97.20;;;;;;5116547;28;20323;-80
2022/08/17 05:40:19;;;;;;;7.55;5.15;;;21.50;97.20;;;;;;5116222;28;20032;-80
2022/08/17 05:42:48;;;;;;;8.45;5.45;;;21.60;97.20;;;;;;5115174;28;20160;-80
2022/08/17 05:45:16;;;;;;;7.68;5.25;;;21.60;97.20;;;;;;5117103;28;20031;-82
2022/08/17 05:47:45;;;;;;;8.43;5.55;;;21.60;97.10;;;;;;5114960;28;20024;-78
2022/08/17 05:50:20;;;;;;;10.05;5.47;;;21.60;97.10;;;;;;5115161;28;20028;-78
2022/08/17 05:53:14;;;;;;;9.45;5.90;;;21.60;97.10;;;;;;5114753;28;20455;-78
2022/08/17 05:56:37;;;;;;;9.52;5.00;;;21.70;97.00;;;;;;5115792;28;20160;-79
2022/08/17 05:59:13;;;;;;;10.15;5.10;;;21.70;97.00;;;;;;5056872;28;20077;-79
2022/08/17 06:02:04;;;;;;;11.02;5.20;;;21.80;96.80;;;;;;5106351;28;20141;-79
2022/08/17 06:04:58;;;;;;;9.15;4.75;;;21.90;96.80;;;;;;5116947;28;20055;-78
2022/08/17 06:07:54;;;;;;;8.82;5.50;;;21.90;96.60;;;;;;5099821;28;20040;-78
2022/08/17 06:10:48;;;;;;;6.10;4.82;;;21.90;96.50;;;;;;5116487;28;20023;-79
2022/08/17 06:13:20;;;;;;;6.70;4.75;;;22.00;96.30;;;;;;5115009;28;20115;-80
2022/08/17 06:16:05;;;;;;;7.05;4.95;;;22.00;96.20;;;;;;5114048;28;20027;-78
2022/08/17 06:19:04;;;;;;;5.65;4.57;;;22.10;96.30;;;;;;5114674;28;20027;-79
2022/08/17 06:21:36;;;;;;;9.48;5.60;;;22.10;96.30;;;;;;5113172;28;20032;-80
2022/08/17 06:24:19;;;;;;;8.23;5.32;;;22.10;96.30;;;;;;5115165;28;20024;-80
2022/08/17 06:26:46;;;;;;;6.22;4.82;;;22.20;96.20;;;;;;5114268;28;20042;-80
2022/08/17 06:29:34;;;;;;;7.15;4.68;;;22.20;96.10;;;;;;5115658;28;20110;-80
2022/08/17 06:32:01;;;;;;;6.40;5.25;;;22.30;96.10;;;;;;5114649;28;20084;-80
2022/08/17 06:34:28;;;;;;;6.32;4.78;;;22.30;96.00;;;;;;5114871;28;20491;-81
2022/08/17 06:37:31;;;;;;;9.25;5.38;;;22.40;95.90;;;;;;5115353;28;20023;-81
2022/08/17 06:40:09;;;;;;;11.75;5.13;;;22.40;96.00;;;;;;5103822;28;20668;-80
2022/08/17 06:42:51;;;;;;;6.40;4.80;;;22.40;96.10;;;;;;5115555;28;20124;-81
2022/08/17 06:45:34;;;;;;;9.77;5.53;;;22.50;96.50;;;;;;5115244;28;20085;-80
2022/08/17 06:48:26;;;;;;;6.43;4.78;;;22.50;96.50;;;;;;5114952;28;20062;-79
2022/08/17 06:50:59;;;;;;;7.68;5.53;;;22.50;96.50;;;;;;5114028;28;20070;-79
2022/08/17 06:53:39;;;;;;;8.45;5.00;;;22.50;97.00;;;;;;5114621;28;20035;-79
2022/08/17 06:56:08;;;;;;;12.57;5.20;;;22.40;97.30;;;;;;5115742;28;20031;-79
2022/08/17 06:58:36;;;;;;;9.68;5.85;;;22.50;97.10;;;;;;5114653;28;20032;-79
2022/08/17 07:01:09;;;;;;;10.10;5.72;;;22.50;96.90;;;;;;5114486;28;20081;-79
2022/08/17 07:03:59;;;;;;;7.20;5.05;;;22.50;97.00;;;;;;5115168;28;20084;-79
2022/08/17 07:06:45;;;;;;;11.43;5.20;;;22.50;97.20;;;;;;5114352;28;20070;-79
2022/08/17 07:09:34;;;;;;;7.40;4.55;;;22.50;97.40;;;;;;5114890;28;20050;-81
2022/08/17 07:12:00;;;;;;;7.47;4.78;;;22.50;97.50;;;;;;5114138;28;20047;-81
2022/08/17 07:14:50;;;;;;;5.60;4.68;;;22.50;97.30;;;;;;5115422;28;20027;-79
2022/08/17 07:17:17;;;;;;;6.03;4.60;;;22.60;97.60;;;;;;5114679;28;20034;-79
2022/08/17 07:19:45;;;;;;;6.32;5.05;;;22.60;97.50;;;;;;5114566;28;20072;-78
2022/08/17 07:22:49;;;;;;;5.47;4.82;;;22.70;97.60;;;;;;5113707;28;20076;-79
2022/08/17 07:25:17;;;;;;;5.40;4.43;;;22.70;97.30;;;;;;5113174;28;20459;-78
2022/08/17 07:27:49;;;;;;;5.03;4.43;;;22.80;97.40;;;;;;5112425;28;20066;-80
2022/08/17 07:30:40;;;;;;;5.70;4.75;;;22.90;97.50;;;;;;5122814;27;20491;-81
2022/08/17 07:33:08;;;;;;;10.85;5.43;;;22.90;97.60;;;;;;5103708;28;20106;-79
2022/08/17 07:35:39;;;;;;;8.15;4.72;;;22.90;97.60;;;;;;5114558;28;20081;-79
2022/08/17 07:38:14;;;;;;;5.90;5.03;;;23.00;96.90;;;;;;5121936;27;20070;-80
2022/08/17 07:40:44;;;;;;;6.78;4.82;;;23.00;97.40;;;;;;5130708;27;20059;-79
2022/08/17 07:43:31;;;;;;;7.45;4.63;;;22.90;97.30;;;;;;5122891;27;20055;-81
2022/08/17 07:49:13;;;;;;;10.15;4.55;;;22.90;97.70;;;;;;5105939;28;20038;-79
2022/08/17 07:51:56;;;;;;;7.40;4.82;;;22.90;97.90;;;;;;5110660;27;20110;-80
2022/08/17 07:54:32;;;;;;;8.85;5.15;;;22.90;97.90;;;;;;5094520;28;20039;-79
2022/08/17 07:57:00;;;;;;;7.85;5.00;;;22.90;97.90;;;;;;5092988;28;20077;-81
2022/08/17 07:59:28;;;;;;;6.10;4.97;;;22.90;98.60;;;;;;5098611;28;20032;-81
2022/08/17 08:01:53;;;;;;;7.10;4.90;;;22.90;99.30;;;;;;5112993;28;20024;-80
2022/08/17 08:04:41;;;;;;;14.65;5.13;;;22.80;99.90;;;;;;5114534;28;20419;-81
2022/08/17 08:07:22;;;;;;;6.65;4.97;;;22.80;99.90;;;;;;5112383;28;20422;-81
2022/08/17 08:10:09;;;;;;;7.83;4.97;;;22.80;99.90;;;;;;5112532;28;20148;-80
2022/08/17 08:12:37;;;;;;;6.97;5.40;;;22.70;99.90;;;;;;5113105;28;20325;-79
2022/08/17 08:15:17;;;;;;;8.45;5.63;;;22.70;99.90;;;;;;5112851;28;20460;-79
2022/08/17 08:17:57;;;;;;;8.73;5.47;;;22.60;99.90;;;;;;5112466;28;20058;-80
2022/08/17 08:20:48;;;;;;;6.78;5.78;;;22.60;99.90;;;;;;5112818;28;20264;-81
2022/08/17 08:23:24;;;;;;;8.50;5.40;;;22.60;99.90;;;;;;5113163;28;20164;-81
2022/08/17 08:26:35;;;;;;;8.60;5.40;;;22.60;99.90;;;;;;5112160;28;20031;-80
2022/08/17 08:29:40;;;;;;;10.35;5.72;;;22.60;99.90;;;;;;5066550;28;20040;-80
2022/08/17 08:32:10;;;;;;;8.63;5.40;;;22.60;99.90;;;;;;5011587;28;20068;-82
2022/08/17 08:35:07;;;;;;;10.65;6.10;;;22.60;99.90;;;;;;5095214;28;20062;-82
2022/08/17 08:37:44;;;;;;;9.38;5.05;;;22.60;99.90;;;;;;5128717;28;20139;-82
2022/08/17 08:40:28;;;;;;;8.10;4.60;;;22.70;99.90;;;;;;5101047;28;20468;-83
2022/08/17 08:43:25;;;;;;;6.53;4.95;;;22.70;99.90;;;;;;5111924;28;20040;-77
2022/08/17 08:46:22;;;;;;;5.18;4.15;;;22.70;99.90;;;;;;5129919;28;20042;-82
2022/08/17 08:49:02;;;;;;;6.35;4.30;;;22.70;99.90;;;;;;5111169;28;20023;-86
2022/08/17 08:51:37;;;;;;;7.18;4.40;;;22.70;99.60;;;;;;5132037;28;20031;-82
2022/08/17 08:54:38;;;;;;;6.80;4.57;;;22.80;99.40;;;;;;5114199;28;20115;-82
2022/08/17 08:57:25;;;;;;;5.38;4.13;;;22.80;99.00;;;;;;5116459;28;20066;-82
2022/08/17 09:00:16;;;;;;;11.77;4.53;;;22.80;99.00;;;;;;5115828;28;20028;-82
2022/08/17 09:03:01;;;;;;;8.23;4.30;;;22.90;98.90;;;;;;5114606;28;20526;-83
2022/08/17 09:05:59;;;;;;;5.85;4.03;;;22.90;99.00;;;;;;5113112;28;20031;-85
2022/08/17 09:08:51;;;;;;;7.20;4.40;;;23.00;98.70;;;;;;5118695;28;20091;-83
2022/08/17 09:11:37;;;;;;;12.27;5.32;;;23.00;98.80;;;;;;5133620;28;20031;-81
2022/08/17 09:14:28;;;;;;;7.60;4.80;;;22.90;99.00;;;;;;5133000;28;20027;-81
2022/08/17 09:17:11;;;;;;;11.43;5.30;;;23.00;98.90;;;;;;5094797;28;20066;-83
2022/08/17 09:19:43;;;;;;;8.80;5.30;;;23.00;99.00;;;;;;5118111;28;20022;-82
2022/08/17 09:22:20;;;;;;;7.25;5.22;;;23.00;98.70;;;;;;5112868;28;20055;-82
2022/08/17 09:24:57;;;;;;;13.13;6.30;;;23.10;98.60;;;;;;5121327;28;20051;-79
2022/08/17 09:27:30;;;;;;;11.80;6.00;;;23.10;98.90;;;;;;5128095;27;20031;-81
2022/08/17 09:30:01;;;;;;;10.02;6.53;;;23.20;99.70;;;;;;5118663;27;20077;-81
2022/08/17 09:32:37;;;;;;;10.00;5.10;;;23.20;99.50;;;;;;5131414;27;20019;-81
2022/08/17 09:35:16;;;;;;;8.40;5.55;;;23.10;99.70;;;;;;5127286;27;20513;-81
2022/08/17 09:37:57;;;;;;;7.35;6.22;;;23.00;99.90;;;;;;5119768;27;20023;-81
2022/08/17 09:40:27;;;;;;;8.63;5.43;;;22.90;99.90;;;;;;5130708;27;20019;-80
2022/08/17 09:43:08;;;;;;;12.93;6.35;;;22.70;99.90;;;;;;5116400;28;20280;-80
2022/08/17 09:45:55;;;;;;;8.93;6.32;;;22.70;99.90;;;;;;5116677;28;20110;-79
2022/08/17 09:48:36;;;;;;;8.98;7.05;;;22.70;99.90;;;;;;5107795;27;20092;-78
2022/08/17 09:51:23;;;;;;;8.82;7.35;;;22.70;99.90;;;;;;5124970;27;20111;-78
2022/08/17 09:53:49;;;;;;;10.32;6.97;;;22.50;99.90;;;;;;5131915;27;20106;-78
2022/08/17 09:56:24;;;;;;;12.30;6.53;;;22.40;99.90;;;;;;5120532;27;20076;-80
2022/08/17 09:59:15;;;;;;;10.18;6.50;;;22.40;99.90;;;;;;5126883;27;20023;-79
2022/08/17 10:01:53;;;;;;;;;;;22.30;99.90;;;;;;5133904;27;20038;-79
2022/08/17 10:04:42;;;;;;;10.15;6.70;;;22.20;99.90;;;;;;5121304;27;19907;-82
2022/08/17 10:07:45;;;;;;;8.50;6.43;;;22.20;99.90;;;;;;5122676;27;20032;-79
2022/08/17 10:10:28;;;;;;;8.93;7.30;;;22.10;99.90;;;;;;5095732;28;20036;-81
2022/08/17 10:13:14;;;;;;;8.32;6.82;;;22.10;99.90;;;;;;5095247;28;20069;-81
2022/08/17 10:15:49;;;;;;;9.70;6.80;;;22.30;99.90;;;;;;5095777;28;20048;-84
2022/08/17 10:18:41;;;;;;;12.15;7.30;;;22.40;99.90;;;;;;5113266;27;20032;-83
2022/08/17 10:27:05;;;;;;;9.65;6.35;;;23.00;99.90;;;;;;5127451;27;20034;-84
2022/08/17 10:29:36;;;;;;;11.73;6.70;;;23.00;99.90;;;;;;5117694;27;20038;-84
2022/08/17 10:41:56;;;;;;;9.20;6.25;;;23.60;99.40;;;;;;5106722;28;20386;-83
2022/08/17 10:44:25;;;;;;;;;;;23.50;99.70;;;;;;5078113;28;20035;-81
2022/08/17 10:47:05;;;;;;;20.90;10.38;;;23.60;99.90;;;;;;5064017;28;19904;-78
2022/08/17 10:49:34;;;;;;;9.10;6.03;;;23.60;99.90;;;;;;5071078;28;20103;-79
2022/08/17 10:52:22;;;;;;;8.73;5.82;;;23.50;99.90;;;;;;5070608;28;20275;-85
2022/08/17 10:55:13;;;;;;;7.82;5.35;;;23.50;99.90;;;;;;5078715;28;20223;-82
2022/08/17 10:57:47;;;;;;;8.18;5.60;;;23.50;99.90;;;;;;5072315;28;20373;-81
2022/08/17 11:00:27;;;;;;;6.43;5.47;;;23.50;99.90;;;;;;5075399;28;20077;-80
2022/08/17 11:02:57;;;;;;;5.60;4.65;;;23.60;99.70;;;;;;5079365;28;20078;-81
2022/08/17 11:05:58;;;;;;;5.63;4.82;;;23.50;98.70;;;;;;5092785;28;20024;-83
2022/08/17 11:09:02;;;;;;;6.68;4.97;;;23.60;98.90;;;;;;5086787;28;20031;-81
2022/08/17 11:11:34;;;;;;;5.75;4.43;;;23.80;98.50;;;;;;5097722;28;20059;-78
2022/08/17 11:14:30;;;;;;;5.60;4.10;;;23.90;98.40;;;;;;5072838;28;20077;-79
2022/08/17 11:17:22;;;;;;;6.28;4.05;;;24.00;97.80;;;;;;5072837;28;20028;-78
2022/08/17 11:20:21;;;;;;;5.97;4.13;;;24.00;97.60;;;;;;5089924;28;20040;-79
2022/08/17 11:23:19;;;;;;;5.32;3.92;;;24.00;97.20;;;;;;5070409;28;20024;-80
2022/08/17 11:25:57;;;;;;;4.70;3.78;;;24.00;97.20;;;;;;5069723;28;20029;-81
2022/08/17 11:28:24;;;;;;;5.10;3.70;;;23.90;97.20;;;;;;5086054;28;20101;-79
2022/08/17 11:31:02;;;;;;;5.05;4.43;;;23.90;97.50;;;;;;5071448;28;20032;-78
2022/08/17 11:33:27;;;;;;;5.25;3.80;;;23.80;97.60;;;;;;5086829;28;20035;-78
2022/08/17 11:36:08;;;;;;;8.63;4.00;;;23.80;97.70;;;;;;5072329;28;20029;-78
2022/08/17 11:38:56;;;;;;;5.30;4.03;;;24.00;97.70;;;;;;5096856;28;20475;-79
2022/08/17 11:41:48;;;;;;;9.23;3.97;;;24.20;97.10;;;;;;5076950;28;20056;-77
2022/08/17 11:44:23;;;;;;;5.65;3.90;;;24.40;96.50;;;;;;5078083;28;20079;-79
2022/08/17 11:53:36;;;;;;;5.60;3.95;;;24.60;95.90;;;;;;5094390;28;20058;-78
2022/08/17 11:56:02;;;;;;;6.85;3.58;;;24.50;96.00;;;;;;5078651;28;20028;-79
2022/08/17 11:58:28;;;;;;;6.88;3.65;;;24.50;96.00;;;;;;5070753;28;20027;-78
2022/08/17 12:01:00;;;;;;;4.80;3.55;;;24.60;95.90;;;;;;5067190;28;20032;-79
2022/08/17 12:03:35;;;;;;;4.20;3.33;;;24.50;96.00;;;;;;5063036;28;20035;-78
2022/08/17 12:06:04;;;;;;;4.90;3.47;;;24.50;95.50;;;;;;5073672;28;20104;-78
2022/08/17 12:08:32;;;;;;;5.22;3.50;;;24.60;95.10;;;;;;5064674;28;20028;-78
2022/08/17 12:11:07;;;;;;;5.75;3.45;;;24.50;94.90;;;;;;5075445;28;20089;-78
2022/08/17 12:13:55;;;;;;;4.65;3.53;;;24.50;94.80;;;;;;5062034;28;20029;-77
2022/08/17 12:16:21;;;;;;;4.18;3.22;;;24.50;95.00;;;;;;5059911;28;20031;-77
2022/08/17 12:19:01;;;;;;;5.22;3.92;;;24.50;95.40;;;;;;5084542;28;20021;-78
2022/08/17 12:21:41;;;;;;;6.50;3.58;;;24.60;95.50;;;;;;5071983;28;20040;-77
2022/08/17 12:24:54;;;;;;;4.65;3.63;;;24.60;95.50;;;;;;5062133;28;20474;-77
2022/08/17 12:27:30;;;;;;;6.40;3.55;;;24.60;95.50;;;;;;4999383;28;20125;-77
2022/08/17 12:29:56;;;;;;;5.13;3.50;;;24.60;95.60;;;;;;4998830;28;20081;-77
2022/08/17 12:32:26;;;;;;;5.70;3.83;;;24.70;95.20;;;;;;5030948;28;20032;-76
2022/08/17 12:34:52;;;;;;;4.60;3.50;;;24.70;95.30;;;;;;5067605;28;20028;-77
2022/08/17 12:37:30;;;;;;;12.93;6.75;;;24.70;95.50;;;;;;5081002;28;20401;-76
2022/08/17 12:40:00;;;;;;;16.52;8.27;;;24.80;95.10;;;;;;5072010;28;20104;-76
2022/08/17 12:42:31;;;;;;;8.25;4.60;;;25.00;94.80;;;;;;5058106;28;20077;-75
2022/08/17 12:44:58;;;;;;;3.75;3.35;;;25.40;94.00;;;;;;5066308;28;20028;-79
2022/08/17 12:47:24;;;;;;;7.25;4.63;;;25.60;93.60;;;;;;5062527;28;20123;-80
2022/08/17 12:49:52;;;;;;;5.63;3.45;;;26.10;92.90;;;;;;5073035;28;20028;-78
2022/08/17 12:52:27;;;;;;;4.50;3.42;;;26.50;92.20;;;;;;5058232;28;20031;-78
2022/08/17 12:55:10;;;;;;;13.13;4.57;;;26.90;91.60;;;;;;5066551;28;20064;-81
2022/08/17 12:57:43;;;;;;;6.35;3.45;;;27.30;90.80;;;;;;5060821;28;20106;-78
2022/08/17 13:00:23;;;;;;;6.68;3.40;;;27.50;90.20;;;;;;5045975;28;20030;-81
2022/08/17 13:03:04;;;;;;;6.68;3.60;;;27.90;88.00;;;;;;5066321;28;20051;-80
2022/08/17 13:05:30;;;;;;;5.55;3.70;;;27.90;86.90;;;;;;5062442;28;20028;-79
2022/08/17 13:07:58;;;;;;;5.97;3.58;;;28.30;86.10;;;;;;5072504;28;20020;-79
2022/08/17 13:10:34;;;;;;;5.90;3.53;;;28.50;84.80;;;;;;5062649;28;20396;-78
2022/08/17 13:13:04;;;;;;;5.38;3.15;;;28.50;84.20;;;;;;5083074;28;20074;-80
2022/08/17 13:15:36;;;;;;;3.80;3.40;;;28.40;84.70;;;;;;5071659;28;20020;-79
2022/08/17 13:18:07;;;;;;;4.55;3.58;;;28.30;84.60;;;;;;5059792;28;20449;-81
2022/08/17 13:20:33;;;;;;;4.70;3.60;;;28.40;84.50;;;;;;5069256;28;20457;-79
2022/08/17 13:23:02;;;;;;;3.53;2.80;;;28.60;83.30;;;;;;5067044;28;20444;-80
2022/08/17 13:25:29;;;;;;;4.70;3.22;;;28.80;82.40;;;;;;5061546;28;20029;-80
2022/08/17 13:27:55;;;;;;;7.10;3.42;;;29.10;81.00;;;;;;5072624;28;20119;-80
2022/08/17 13:30:28;;;;;;;4.55;3.60;;;29.40;78.80;;;;;;5059672;28;20051;-80
2022/08/17 13:32:56;;;;;;;3.65;3.25;;;29.70;76.90;;;;;;5066369;28;20028;-82
2022/08/17 13:35:28;;;;;;;9.45;3.85;;;30.00;75.40;;;;;;5080107;28;20369;-81
2022/08/17 13:38:06;;;;;;;3.55;3.13;;;30.30;74.00;;;;;;5072399;28;20464;-81
2022/08/17 13:40:40;;;;;;;3.72;3.33;;;30.60;72.50;;;;;;5057005;28;20131;-81
2022/08/17 13:43:07;;;;;;;7.85;3.47;;;30.50;71.50;;;;;;5055927;28;20083;-82
2022/08/17 13:45:36;;;;;;;5.00;3.25;;;30.70;71.20;;;;;;5070811;28;20033;-81
2022/08/17 13:48:08;;;;;;;4.28;2.88;;;30.70;69.80;;;;;;5089983;28;20077;-79
2022/08/17 13:50:43;;;;;;;4.28;3.10;;;30.70;69.10;;;;;;5057439;28;20043;-79
2022/08/17 13:53:15;;;;;;;5.07;2.90;;;30.60;68.10;;;;;;5068314;28;20031;-80
2022/08/17 13:55:49;;;;;;;5.07;2.78;;;30.40;68.00;;;;;;5076454;28;20040;-80
2022/08/17 13:58:25;;;;;;;3.88;3.00;;;30.30;68.90;;;;;;5070847;28;20583;-79